Latest Coastal Weather Observations for Yanakie

IDV60701

Issued at 12:41 am EST Saturday 15 August 2020 (issued every 10 minutes, with the page automatically refreshed every 10 minutes)

About coastal observations | Map of coastal stations | Coastal observations for VIC | Marine services | Other Formats
Station Details ID: 085301 Name: YANAKIE Lat: -38.81 Lon: 146.19 Height: 13.3 m
Data from the previous 72 hours. | See also: Recent months at Yanakie
Date/Time
EST
Wind Sea
Height
m
Swell Vis
km
Cloud Weather Temp
°C
Press
hPa
Rain since
9am
mm
Dir  Spd
kts
Gust
kts
Height
m
Period
s
Dir
15/12:30am E 3 3 - - - - - - - 10.2 1012.7 1.0
15/12:00am SSE 2 3 - - - - - - - 9.9 1012.6 1.0
 
Date/Time
EST
Wind Sea
Height
m
Swell Vis
km
Cloud Weather Temp
°C
Press
hPa
Rain since
9am
mm
Dir  Spd
kts
Gust
kts
Height
m
Period
s
Dir
14/11:30pm SSE 2 3 - - - - - - - 9.7 1012.5 1.0
14/11:00pm CALM 0 0 - - - - - - - 9.5 1012.7 1.0
14/10:30pm CALM 0 2 - - - - - - - 10.0 1012.8 1.0
14/10:00pm NNW 3 4 - - - - - - - 10.3 1013.0 1.0
14/09:30pm N 4 6 - - - - - - - 10.4 1013.3 1.0
14/09:00pm N 4 6 - - - - - - - 10.7 1013.4 1.0
14/08:30pm NNE 4 6 - - - - - - - 10.7 1013.4 1.0
14/08:00pm N 5 6 - - - - - - - 10.6 1013.5 1.0
14/07:30pm CALM 0 0 - - - - - - - 10.7 1013.3 1.0
14/07:00pm ENE 3 4 - - - - - - - 10.8 1013.2 1.0
14/06:30pm ENE 3 6 - - - - - - - 10.5 1013.2 1.0
14/06:00pm CALM 0 1 - - - - - - Recent precip. 10.5 1013.1 1.0
14/05:30pm SSE 2 3 - - - - - - - 10.8 1012.6 0.8
14/05:00pm W 4 7 - - - - - - - 10.9 1012.7 0.0
14/04:30pm WNW 13 17 - - - - - - - 12.0 1012.8 0.0
14/04:00pm SSW 2 3 - - - - - - - 15.0 1011.9 0.0
14/03:30pm S 4 7 - - - - - - - 15.9 1011.6 0.0
14/03:00pm ESE 4 6 - - - - - - - 15.6 1011.6 0.0
14/02:30pm E 3 5 - - - - - - - 15.9 1011.7 0.0
14/02:00pm ENE 2 3 - - - - - - - 16.5 1011.5 0.0
14/01:30pm E 2 3 - - - - - - - 15.8 1011.5 0.0
14/01:00pm CALM 0 1 - - - - - - - 14.6 1012.0 0.0
14/12:30pm ENE 5 7 - - - - - - - 14.8 1012.1 0.0
14/12:00pm NE 3 7 - - - - - - - 14.0 1012.6 0.0
14/11:30am ENE 4 5 - - - - - - - 14.6 1012.8 0.0
14/11:00am ENE 5 7 - - - - - - - 13.5 1013.0 0.0
14/10:30am ENE 3 5 - - - - - - - 13.3 1013.1 0.0
14/10:00am ENE 5 9 - - - - - - - 12.8 1013.0 0.0
14/09:30am ENE 5 7 - - - - - - - 13.3 1012.9 0.0
14/09:00am ENE 5 6 - - - - - - - 13.5 1012.9 0.0
14/08:30am ENE 5 8 - - - - - - - 12.7 1012.9 0.0
14/08:00am ENE 5 6 - - - - - - - 10.9 1012.8 0.0
14/07:30am ENE 4 5 - - - - - - - 9.2 1012.7 0.0
14/07:00am ENE 5 6 - - - - - - - 9.1 1012.5 0.0
14/06:30am ENE 4 5 - - - - - - - 9.1 1012.3 0.0
14/06:00am NE 6 7 - - - - - - - 9.8 1012.1 0.0
14/05:30am NE 5 7 - - - - - - - 10.2 1012.0 0.0
14/05:00am NE 4 5 - - - - - - - 9.9 1011.8 0.0
14/04:30am NE 4 5 - - - - - - - 10.1 1011.7 0.0
14/04:00am NNE 5 6 - - - - - - - 11.2 1011.6 0.0
14/03:30am NE 5 5 - - - - - - - 11.4 1011.6 0.0
14/03:00am ENE 1 2 - - - - - - - 11.1 1011.5 0.0
14/02:30am N 4 5 - - - - - - - 12.0 1012.2 0.0
14/02:00am NNE 6 9 - - - - - - - 12.4 1012.5 0.0
14/01:30am NE 6 10 - - - - - - - 12.0 1012.7 0.0
14/01:00am ENE 5 7 - - - - - - - 11.2 1012.8 0.0
14/12:30am ENE 5 7 - - - - - - - 10.9 1012.5 0.0
14/12:00am ENE 4 6 - - - - - - - 11.0 1012.6 0.0
 
Date/Time
EST
Wind Sea
Height
m
Swell Vis
km
Cloud Weather Temp
°C
Press
hPa
Rain since
9am
mm
Dir  Spd
kts
Gust
kts
Height
m
Period
s
Dir
13/11:30pm E 5 7 - - - - - - - 11.3 1012.6 0.0
13/11:00pm ENE 5 7 - - - - - - - 11.3 1012.8 0.0
13/10:30pm ENE 5 7 - - - - - - - 11.3 1012.9 0.0
13/10:00pm ENE 4 7 - - - - - - - 11.4 1012.9 0.0
13/09:30pm ENE 5 8 - - - - - - - 11.4 1013.0 0.0
13/09:00pm ENE 6 9 - - - - - - - 11.5 1012.9 0.0
13/08:30pm ENE 5 8 - - - - - - - 11.6 1012.8 0.0
13/08:00pm ENE 4 7 - - - - - - - 11.2 1012.6 0.0
13/07:30pm E 3 5 - - - - - - - 10.7 1012.3 0.0
13/07:00pm ENE 3 5 - - - - - - - 10.8 1012.1 0.0
13/06:30pm ENE 4 5 - - - - - - - 11.4 1011.9 0.0
13/06:00pm ENE 5 8 - - - - - - - 12.0 1011.5 0.0
13/05:30pm E 4 6 - - - - - - - 12.6 1011.2 0.0
13/05:00pm ENE 3 4 - - - - - - - 13.3 1010.9 0.0
13/04:30pm NE 2 5 - - - - - - - 13.6 1010.9 0.0
13/04:00pm WNW 2 4 - - - - - - - 13.8 1011.0 0.0
13/03:30pm NNW 6 10 - - - - - - - 13.2 1011.0 0.0
13/03:00pm ENE 3 5 - - - - - - - 14.7 1010.5 0.0
13/02:30pm ENE 4 6 - - - - - - - 16.0 1010.4 0.0
13/02:00pm ENE 3 6 - - - - - - - 15.6 1010.3 0.0
13/01:30pm E 3 4 - - - - - - - 15.9 1010.4 0.0
13/01:00pm ENE 6 8 - - - - - - - 15.4 1010.6 0.0
13/12:30pm CALM 0 1 - - - - - - - 16.7 1010.8 0.0
13/12:00pm NE 4 6 - - - - - - - 15.6 1011.2 0.0
13/11:30am N 5 8 - - - - - - - 15.0 1011.6 0.0
13/11:00am N 3 5 - - - - - - - 14.9 1011.9 0.0
13/10:30am NE 2 3 - - - - - - - 14.4 1011.9 0.0
13/10:00am NNE 1 3 - - - - - - - 14.7 1011.8 0.0
13/09:30am E 4 5 - - - - - - - 14.1 1011.7 0.0
13/09:00am ENE 3 4 - - - - - - - 13.5 1011.6 0.0
13/08:30am ENE 2 5 - - - - - - - 12.2 1011.4 0.0
13/08:00am ENE 3 4 - - - - - - - 10.7 1011.2 0.0
13/07:30am ENE 3 5 - - - - - - - 10.4 1010.9 0.0
13/07:00am ENE 2 5 - - - - - - - 10.2 1010.6 0.0
13/06:30am ENE 3 3 - - - - - - - 10.1 1010.4 0.0
13/06:00am NE 2 3 - - - - - - - 10.0 1010.1 0.0
13/05:30am ENE 3 3 - - - - - - - 9.7 1009.9 0.0
13/05:00am ENE 2 3 - - - - - - - 9.8 1009.7 0.0
13/04:30am NE 3 3 - - - - - - - 9.8 1009.4 0.0
13/04:00am NNE 3 5 - - - - - - - 10.6 1009.3 0.0
13/03:30am NE 3 6 - - - - - - - 10.7 1009.1 0.0
13/03:00am NE 3 4 - - - - - - - 10.5 1009.3 0.0
13/02:30am NE 3 5 - - - - - - - 10.5 1009.3 0.0
13/02:00am ENE 3 5 - - - - - - - 9.6 1009.4 0.0
13/01:30am ENE 3 5 - - - - - - - 10.2 1009.4 0.0
13/01:00am ENE 3 5 - - - - - - - 9.9 1009.5 0.0
13/12:30am E 3 5 - - - - - - - 9.9 1009.4 0.0
13/12:00am E 4 5 - - - - - - - 9.9 1009.4 0.0
 
Date/Time
EST
Wind Sea
Height
m
Swell Vis
km
Cloud Weather Temp
°C
Press
hPa
Rain since
9am
mm
Dir  Spd
kts
Gust
kts
Height
m
Period
s
Dir
12/11:30pm E 4 5 - - - - - - - 9.7 1009.4 0.0
12/11:00pm ENE 3 4 - - - - - - - 9.0 1009.6 0.0
12/10:30pm ENE 2 3 - - - - - - - 8.5 1009.7 0.0
12/10:00pm NE 3 4 - - - - - - - 9.9 1009.7 0.0
12/09:30pm NE 3 4 - - - - - - - 9.8 1009.6 0.0
12/09:00pm NE 3 4 - - - - - - - 10.3 1009.5 0.0
12/08:30pm NE 3 4 - - - - - - - 10.4 1009.3 0.0
12/08:00pm ENE 3 4 - - - - - - - 10.4 1009.0 0.0
12/07:30pm ENE 3 4 - - - - - - - 10.8 1008.9 0.0
12/07:00pm ENE 3 4 - - - - - - - 11.0 1008.7 0.0
12/06:30pm ENE 3 5 - - - - - - - 11.3 1008.5 0.0
12/06:00pm E 3 5 - - - - - - - 11.4 1008.2 0.0
12/05:30pm E 3 5 - - - - - - - 11.7 1008.0 0.0
12/05:00pm E 4 6 - - - - - - - 12.8 1007.9 0.0
12/04:30pm ENE 5 7 - - - - - - - 13.8 1007.9 0.0
12/04:00pm ENE 6 8 - - - - - - - 14.3 1008.0 0.0
12/03:30pm E 6 9 - - - - - - - 13.5 1008.0 0.0
12/03:00pm ENE 5 8 - - - - - - - 12.9 1008.1 0.0
12/02:30pm ENE 6 9 - - - - - - - 12.5 1008.1 0.0
12/02:00pm ENE 6 8 - - - - - - - 12.1 1008.3 0.0
12/01:30pm ENE 7 10 - - - - - - - 11.6 1008.5 0.0
12/01:00pm ENE 9 13 - - - - - - - 11.4 1008.9 0.0
12/12:30pm ENE 9 13 - - - - - - - 10.8 1009.4 0.0
12/12:00pm ENE 9 13 - - - - - - - 10.7 1009.9 0.0
12/11:30am ENE 8 13 - - - - - - - 10.4 1010.4 0.0
12/11:00am ENE 8 12 - - - - - - - 10.2 1010.7 0.0
12/10:30am ENE 7 12 - - - - - - - 9.8 1011.2 0.0
12/10:00am ENE 6 11 - - - - - - - 9.6 1011.5 0.0
12/09:30am ENE 5 8 - - - - - - - 9.4 1012.0 0.0
12/09:00am NE 3 5 - - - - - - - 9.1 1012.3 2.0
12/08:30am NE 4 5 - - - - - - - 8.9 1012.6 2.0
12/08:00am ENE 3 5 - - - - - - - 8.7 1012.4 2.0
12/07:30am E 3 4 - - - - - - - 8.5 1012.4 2.0
12/07:00am ENE 2 3 - - - - - - - 8.4 1012.4 1.0
12/06:30am ENE 3 5 - - - - - - - 8.6 1012.1 0.2
12/06:00am NE 4 6 - - - - - - - 8.9 1011.8 0.0
12/05:30am ENE 6 8 - - - - - - - 9.4 1011.8 0.0
12/05:00am ENE 7 11 - - - - - - - 9.8 1011.5 0.0
12/04:30am ENE 6 9 - - - - - - - 9.6 1011.6 0.0
12/04:00am NE 5 10 - - - - - - - 9.4 1012.0 0.0
12/03:30am NE 4 7 - - - - - - - 8.9 1012.3 0.0
12/03:00am ENE 5 7 - - - - - - - 9.3 1012.5 0.0
12/02:30am ENE 3 6 - - - - - - - 9.4 1012.9 0.0
12/02:00am E 2 4 - - - - - - - 9.1 1013.3 0.0
12/01:30am E 4 6 - - - - - - - 9.3 1013.5 0.0
12/01:00am ENE 2 4 - - - - - - - 9.3 1013.7 0.0

Other formats

Comma delimited format used in spreadsheet applications
http://www.bom.gov.au/fwo/IDV60701/IDV60701.94911.axf

JavaScript Object Notation format (JSON) in row-major order
http://www.bom.gov.au/fwo/IDV60701/IDV60701.94911.json

Data quality

Most of these data are generated automatically and are frequently updated. Quality checks on data are not normally performed. It is possible for incorrect values to appear. Refer to information at About Latest Weather Observations and please check the disclaimer before using these data.